Time;durP1;ratioP1;P1;durP2;ratioP2;P2;SDS_P1;SDS_P2;PMS_P1;PMS_P2;Temp;Humidity;BMP_temperature;BMP_pressure;BME280_temperature;BME280_humidity;BME280_pressure;Samples;Min_cycle;Max_cycle;Signal;HPM_P1;HPM_P2
2023/03/02 00:00:39;;;;;;;;;;;;;;;3.59;50.42;97382.25;5001030;28;19966;-74
2023/03/02 00:03:04;;;;;;;;;;;;;;;3.64;49.98;97388.38;5025747;28;20195;-75
2023/03/02 00:05:29;;;;;;;;;;;;;;;3.44;50.93;97390.88;5029244;28;19924;-75
2023/03/02 00:07:56;;;;;;;;;;;;;;;3.42;50.34;97387.72;5033187;28;20296;-75
2023/03/02 00:10:21;;;;;;;;;;;;;;;3.68;50.40;97386.22;5032939;28;20038;-75
2023/03/02 00:12:46;;;;;;;;;;;;;;;3.72;50.20;97384.84;5015037;28;20000;-75
2023/03/02 00:15:11;;;;;;;;;;;;;;;3.69;50.37;97387.81;5034093;28;19945;-76
2023/03/02 00:17:37;;;;;;;;;;;;;;;3.61;50.40;97375.09;5031242;28;19917;-76
2023/03/02 00:20:09;;;;;;;;;;;;;;;3.40;50.56;97379.41;5032811;28;20448;-75
2023/03/02 00:22:35;;;;;;;;;;;;;;;3.56;50.23;97378.25;5021628;28;20339;-76
2023/03/02 00:25:00;;;;;;;;;;;;;;;3.40;50.76;97381.97;5033650;28;19967;-76
2023/03/02 00:27:28;;;;;;;;;;;;;;;3.43;51.05;97383.34;5006919;28;19944;-76
2023/03/02 00:29:54;;;;;;;;;;;;;;;3.31;50.84;97378.00;5020006;28;19978;-77
2023/03/02 00:32:19;;;;;;;;;;;;;;;3.26;51.84;97377.78;5027269;28;19913;-76
2023/03/02 00:34:44;;;;;;;;;;;;;;;3.18;51.51;97368.44;5027937;28;19920;-77
2023/03/02 00:37:09;;;;;;;;;;;;;;;3.32;51.42;97377.78;5027117;28;20607;-76
2023/03/02 00:39:35;;;;;;;;;;;;;;;3.20;51.99;97379.31;5011920;28;20283;-77
2023/03/02 00:42:00;;;;;;;;;;;;;;;3.07;52.31;97380.06;5027280;28;19919;-77
2023/03/02 00:44:25;;;;;;;;;;;;;;;3.32;51.42;97380.34;5025345;28;19948;-76
2023/03/02 00:46:50;;;;;;;;;;;;;;;3.21;51.71;97375.00;5034088;28;19991;-75
2023/03/02 00:49:16;;;;;;;;;;;;;;;3.26;51.43;97375.22;5026698;28;19916;-75
2023/03/02 00:51:41;;;;;;;;;;;;;;;3.07;51.82;97369.78;5036016;28;20444;-77
2023/03/02 00:54:06;;;;;;;;;;;;;;;3.09;51.74;97377.31;5034937;28;20284;-76
2023/03/02 00:56:31;;;;;;;;;;;;;;;3.12;51.73;97372.56;5019885;28;20015;-76
2023/03/02 00:58:57;;;;;;;;;;;;;;;3.25;51.89;97360.75;5019725;28;19917;-76
2023/03/02 01:01:22;;;;;;;;;;;;;;;3.17;52.01;97362.50;5028924;28;19917;-76
2023/03/02 01:03:47;;;;;;;;;;;;;;;2.94;52.86;97362.00;5041499;28;19932;-77
2023/03/02 01:06:13;;;;;;;;;;;;;;;2.94;52.19;97359.44;5027058;28;20314;-76
2023/03/02 01:08:40;;;;;;;;;;;;;;;2.90;52.85;97359.00;5046490;28;19924;-76
2023/03/02 01:11:11;;;;;;;;;;;;;;;2.93;52.85;97362.97;5026457;28;20036;-76
2023/03/02 01:13:36;;;;;;;;;;;;;;;3.00;52.62;97356.88;5024945;28;19974;-75
2023/03/02 01:16:02;;;;;;;;;;;;;;;3.21;52.36;97356.97;5044869;28;19912;-76
2023/03/02 01:18:27;;;;;;;;;;;;;;;3.25;51.75;97348.66;5045394;28;20394;-78
2023/03/02 01:20:59;;;;;;;;;;;;;;;3.35;51.90;97350.88;5046919;28;19956;-75
2023/03/02 01:23:26;;;;;;;;;;;;;;;3.21;52.01;97346.69;5047147;28;19912;-76
2023/03/02 01:25:51;;;;;;;;;;;;;;;3.21;51.54;97342.31;5028927;28;19916;-76
2023/03/02 01:28:16;;;;;;;;;;;;;;;3.15;51.86;97338.75;5024204;28;20415;-77
2023/03/02 01:30:42;;;;;;;;;;;;;;;3.22;52.26;97337.97;5045648;28;19978;-76
2023/03/02 01:33:07;;;;;;;;;;;;;;;2.87;52.68;97332.88;5036950;28;19913;-76
2023/03/02 01:35:32;;;;;;;;;;;;;;;3.19;52.20;97329.66;5027647;28;19913;-77
2023/03/02 01:37:57;;;;;;;;;;;;;;;3.07;52.14;97323.47;5035482;28;20016;-76
2023/03/02 01:40:22;;;;;;;;;;;;;;;2.87;52.83;97322.59;5039622;28;19923;-75
2023/03/02 01:42:52;;;;;;;;;;;;;;;3.02;52.28;97319.88;5028303;28;19959;-77
2023/03/02 01:45:36;;;;;;;;;;;;;;;2.92;52.70;97315.88;5034561;28;19917;-75
2023/03/02 01:48:02;;;;;;;;;;;;;;;2.91;53.10;97306.56;5029138;28;20606;-77
2023/03/02 01:50:27;;;;;;;;;;;;;;;3.12;52.92;97300.53;5018523;28;19913;-76
2023/03/02 01:52:52;;;;;;;;;;;;;;;3.06;52.79;97306.44;5018182;28;19917;-75
2023/03/02 01:55:18;;;;;;;;;;;;;;;2.96;52.85;97291.38;5036924;28;19917;-74
2023/03/02 01:57:45;;;;;;;;;;;;;;;2.96;52.58;97296.50;5018191;28;19917;-76
2023/03/02 02:00:13;;;;;;;;;;;;;;;2.95;52.89;97300.09;5029026;28;19960;-76
2023/03/02 02:02:40;;;;;;;;;;;;;;;3.05;52.28;97289.44;5000098;28;21118;-75
2023/03/02 02:05:07;;;;;;;;;;;;;;;2.94;52.66;97298.47;5028105;28;19936;-77
2023/03/02 02:07:32;;;;;;;;;;;;;;;3.09;52.48;97295.00;5026026;28;19924;-77
2023/03/02 02:09:57;;;;;;;;;;;;;;;2.83;53.08;97299.06;5046085;28;20347;-76
2023/03/02 02:12:23;;;;;;;;;;;;;;;2.89;53.32;97290.56;5021603;28;19956;-75
2023/03/02 02:14:48;;;;;;;;;;;;;;;2.95;52.74;97294.16;5028653;28;19920;-76
2023/03/02 02:17:14;;;;;;;;;;;;;;;3.17;52.25;97298.19;5030631;28;19916;-76
2023/03/02 02:19:44;;;;;;;;;;;;;;;3.10;52.06;97297.38;5028092;28;20439;-76
2023/03/02 02:22:10;;;;;;;;;;;;;;;3.02;52.67;97287.25;5024471;28;19979;-77
2023/03/02 02:24:42;;;;;;;;;;;;;;;3.05;52.46;97291.19;5012441;28;19971;-75
2023/03/02 02:27:07;;;;;;;;;;;;;;;2.91;53.19;97292.94;5032844;28;20415;-77
2023/03/02 02:29:33;;;;;;;;;;;;;;;3.14;52.21;97292.63;5047993;28;19995;-76
2023/03/02 02:32:18;;;;;;;;;;;;;;;3.10;52.70;97287.09;5029881;28;20404;-76
2023/03/02 02:34:50;;;;;;;;;;;;;;;3.12;52.55;97284.28;5010328;28;19966;-76
2023/03/02 02:37:16;;;;;;;;;;;;;;;2.92;52.56;97284.25;5048724;28;20571;-76
2023/03/02 02:39:42;;;;;;;;;;;;;;;3.03;52.63;97282.88;5048879;28;19913;-76
2023/03/02 02:42:10;;;;;;;;;;;;;;;3.03;53.21;97286.25;5032035;28;19913;-77
2023/03/02 02:44:35;;;;;;;;;;;;;;;2.78;52.84;97285.97;5032838;28;19920;-76
2023/03/02 02:47:01;;;;;;;;;;;;;;;2.98;53.02;97281.69;5043643;28;19934;-76
2023/03/02 02:49:37;;;;;;;;;;;;;;;3.07;52.20;97277.19;5031759;28;19913;-76
2023/03/02 02:52:02;;;;;;;;;;;;;;;3.12;52.15;97285.09;5026483;28;19928;-76
2023/03/02 02:54:28;;;;;;;;;;;;;;;3.06;52.26;97282.50;5042491;28;19913;-76
2023/03/02 02:56:53;;;;;;;;;;;;;;;2.92;53.08;97279.09;5045833;28;19935;-76
2023/03/02 02:59:20;;;;;;;;;;;;;;;2.76;52.75;97281.03;5031049;28;19912;-76
2023/03/02 03:01:45;;;;;;;;;;;;;;;2.77;53.08;97271.53;5025383;28;19913;-78
2023/03/02 03:04:11;;;;;;;;;;;;;;;2.68;53.34;97273.47;5044599;28;19942;-76
2023/03/02 03:06:42;;;;;;;;;;;;;;;2.78;53.28;97279.03;5042837;28;19923;-76
2023/03/02 03:09:11;;;;;;;;;;;;;;;2.67;53.64;97282.16;5046117;28;19913;-77
2023/03/02 03:11:37;;;;;;;;;;;;;;;2.70;53.86;97281.78;5030406;28;20007;-75
2023/03/02 03:14:03;;;;;;;;;;;;;;;2.80;53.13;97277.06;5047257;28;19986;-76
2023/03/02 03:16:29;;;;;;;;;;;;;;;2.42;54.17;97282.63;5047088;28;19920;-75
2023/03/02 03:18:55;;;;;;;;;;;;;;;2.51;54.25;97274.78;5010300;28;19913;-76
2023/03/02 03:21:20;;;;;;;;;;;;;;;2.62;54.09;97280.16;5045576;28;19921;-76
2023/03/02 03:23:45;;;;;;;;;;;;;;;2.68;53.93;97272.69;5048050;28;20544;-76
2023/03/02 03:26:11;;;;;;;;;;;;;;;2.75;53.44;97271.72;5041853;28;19913;-76
2023/03/02 03:28:36;;;;;;;;;;;;;;;2.58;53.81;97275.59;5034284;28;20029;-77
2023/03/02 03:31:01;;;;;;;;;;;;;;;2.69;53.39;97272.50;5026428;28;19935;-76
2023/03/02 03:33:27;;;;;;;;;;;;;;;2.60;53.98;97271.03;5044587;28;19912;-76
2023/03/02 03:35:52;;;;;;;;;;;;;;;2.48;54.04;97267.44;5021867;28;19913;-76
2023/03/02 03:38:17;;;;;;;;;;;;;;;2.46;54.02;97269.41;5040461;28;20355;-76
2023/03/02 03:40:42;;;;;;;;;;;;;;;2.49;54.02;97269.03;5029505;28;19916;-76
2023/03/02 03:43:08;;;;;;;;;;;;;;;2.48;54.33;97277.72;5022439;28;19912;-76
2023/03/02 03:45:33;;;;;;;;;;;;;;;2.54;54.08;97274.41;5042143;28;20303;-76
2023/03/02 03:47:58;;;;;;;;;;;;;;;2.68;53.29;97280.41;5044647;28;20444;-76
2023/03/02 03:50:24;;;;;;;;;;;;;;;2.75;53.28;97284.56;5012537;28;19919;-76
2023/03/02 03:52:49;;;;;;;;;;;;;;;2.61;53.64;97288.06;5025708;28;20018;-75
2023/03/02 03:55:14;;;;;;;;;;;;;;;2.74;53.44;97283.00;5044944;28;20426;-76
2023/03/02 03:57:39;;;;;;;;;;;;;;;2.71;53.51;97285.94;5036647;28;19924;-75
2023/03/02 04:00:06;;;;;;;;;;;;;;;2.85;53.38;97291.94;5030048;28;19917;-76
2023/03/02 04:02:32;;;;;;;;;;;;;;;2.82;53.13;97289.75;5025491;28;19917;-76
2023/03/02 04:05:05;;;;;;;;;;;;;;;2.82;53.10;97289.75;5045100;28;20387;-75
2023/03/02 04:07:34;;;;;;;;;;;;;;;2.81;53.26;97283.00;5036305;28;19920;-75
2023/03/02 04:10:02;;;;;;;;;;;;;;;2.75;53.43;97284.56;5037661;28;20406;-76
2023/03/02 04:12:28;;;;;;;;;;;;;;;2.66;53.19;97280.59;5041930;28;20303;-77
2023/03/02 04:14:53;;;;;;;;;;;;;;;2.63;53.66;97283.53;5044514;28;19917;-75
2023/03/02 04:17:18;;;;;;;;;;;;;;;2.79;53.04;97284.97;5027516;28;20442;-76
2023/03/02 04:19:44;;;;;;;;;;;;;;;2.54;54.13;97282.09;5042713;28;19913;-76
2023/03/02 04:22:09;;;;;;;;;;;;;;;2.59;54.06;97285.69;5028526;28;19960;-75
2023/03/02 04:24:35;;;;;;;;;;;;;;;2.52;53.97;97277.16;5039328;28;20019;-76
2023/03/02 04:27:00;;;;;;;;;;;;;;;2.52;54.02;97289.19;5022918;28;19963;-76
2023/03/02 04:29:25;;;;;;;;;;;;;;;2.52;54.10;97278.91;5042704;28;20288;-77
2023/03/02 04:31:50;;;;;;;;;;;;;;;2.40;54.36;97278.69;5030889;28;19917;-76
2023/03/02 04:34:16;;;;;;;;;;;;;;;2.53;54.03;97283.06;5040854;28;20176;-76
2023/03/02 04:36:42;;;;;;;;;;;;;;;2.69;53.46;97287.91;5045497;28;19912;-75
2023/03/02 04:39:08;;;;;;;;;;;;;;;2.70;53.47;97279.19;5040339;28;20360;-76
2023/03/02 04:41:33;;;;;;;;;;;;;;;2.65;53.51;97273.84;5045247;28;19913;-76
2023/03/02 04:43:58;;;;;;;;;;;;;;;2.68;53.60;97268.31;5039384;28;20461;-77
2023/03/02 04:46:26;;;;;;;;;;;;;;;2.48;54.07;97273.38;5012972;28;19912;-76
2023/03/02 04:48:52;;;;;;;;;;;;;;;2.44;54.24;97264.47;5043774;28;20380;-76
2023/03/02 04:51:22;;;;;;;;;;;;;;;2.51;54.04;97267.84;5026737;28;19962;-76
2023/03/02 04:53:48;;;;;;;;;;;;;;;2.50;54.15;97270.59;5038200;28;19920;-76
2023/03/02 04:56:13;;;;;;;;;;;;;;;2.32;54.51;97271.91;5042378;28;19916;-76
2023/03/02 04:58:38;;;;;;;;;;;;;;;2.33;54.46;97275.25;5026403;28;19955;-76
2023/03/02 05:01:06;;;;;;;;;;;;;;;2.35;54.46;97274.09;5046376;28;19935;-77
2023/03/02 05:03:31;;;;;;;;;;;;;;;2.34;53.96;97274.28;5030560;28;20352;-76
2023/03/02 05:05:56;;;;;;;;;;;;;;;2.46;54.45;97265.06;5030558;28;19971;-77
2023/03/02 05:08:23;;;;;;;;;;;;;;;2.32;54.91;97269.34;5026515;28;19964;-76
2023/03/02 05:10:48;;;;;;;;;;;;;;;2.60;53.61;97271.03;5046170;28;20003;-76
2023/03/02 05:13:13;;;;;;;;;;;;;;;2.44;54.08;97267.81;5037310;28;20027;-76
2023/03/02 05:15:39;;;;;;;;;;;;;;;2.32;54.58;97265.97;5047841;28;19913;-76
2023/03/02 05:18:06;;;;;;;;;;;;;;;2.26;54.83;97262.38;5037938;28;19913;-76
2023/03/02 05:20:31;;;;;;;;;;;;;;;2.50;54.28;97270.59;5006190;28;19975;-76
2023/03/02 05:22:58;;;;;;;;;;;;;;;2.44;54.02;97272.16;5041442;28;21983;-76
2023/03/02 05:25:24;;;;;;;;;;;;;;;2.58;54.07;97273.03;5029988;28;19917;-76
2023/03/02 05:27:49;;;;;;;;;;;;;;;2.52;53.99;97274.59;5011267;28;20498;-76
2023/03/02 05:30:15;;;;;;;;;;;;;;;2.56;53.73;97275.00;5032645;28;19923;-75
2023/03/02 05:32:40;;;;;;;;;;;;;;;2.63;53.79;97271.47;5012871;28;20372;-75
2023/03/02 05:35:05;;;;;;;;;;;;;;;2.28;54.57;97283.53;5023662;28;19920;-77
2023/03/02 05:37:31;;;;;;;;;;;;;;;2.38;54.45;97270.34;4995941;28;19921;-76
2023/03/02 05:39:56;;;;;;;;;;;;;;;2.40;54.10;97266.63;5028836;28;20030;-76
2023/03/02 05:42:22;;;;;;;;;;;;;;;2.27;55.13;97263.19;5029900;28;19956;-75
2023/03/02 05:44:47;;;;;;;;;;;;;;;2.27;54.55;97266.53;5021373;28;19921;-75
2023/03/02 05:47:12;;;;;;;;;;;;;;;2.34;54.20;97271.72;5007760;28;20023;-76
2023/03/02 05:49:37;;;;;;;;;;;;;;;2.27;54.54;97271.66;5031606;28;19928;-75
2023/03/02 05:52:03;;;;;;;;;;;;;;;1.96;55.41;97266.94;5032337;28;19958;-76
2023/03/02 05:54:28;;;;;;;;;;;;;;;2.28;54.69;97265.56;5031141;28;20436;-76
2023/03/02 05:56:53;;;;;;;;;;;;;;;2.14;55.05;97271.59;5015001;28;19924;-77
2023/03/02 05:59:19;;;;;;;;;;;;;;;2.20;55.18;97266.50;5022979;28;19921;-76
2023/03/02 06:01:44;;;;;;;;;;;;;;;2.05;55.46;97268.38;5013260;28;19924;-75
2023/03/02 06:04:09;;;;;;;;;;;;;;;2.23;55.15;97266.13;5006742;28;19924;-75
2023/03/02 06:06:34;;;;;;;;;;;;;;;2.30;54.73;97266.16;5013116;28;19952;-76
2023/03/02 06:09:00;;;;;;;;;;;;;;;2.30;55.04;97273.09;5010101;28;20358;-77
2023/03/02 06:11:25;;;;;;;;;;;;;;;2.28;54.54;97273.28;5031173;28;19917;-76
2023/03/02 06:13:50;;;;;;;;;;;;;;;2.20;55.17;97276.75;5023847;28;19920;-75
2023/03/02 06:16:15;;;;;;;;;;;;;;;2.30;55.00;97278.22;5014069;28;19921;-76
2023/03/02 06:18:41;;;;;;;;;;;;;;;2.26;55.34;97272.63;5035531;28;19944;-76
2023/03/02 06:21:06;;;;;;;;;;;;;;;2.31;54.92;97279.78;5039074;28;20011;-75
2023/03/02 06:23:31;;;;;;;;;;;;;;;2.42;54.49;97290.34;5034990;28;19950;-76
2023/03/02 06:25:57;;;;;;;;;;;;;;;2.28;54.95;97288.69;5031512;28;19921;-75
2023/03/02 06:28:22;;;;;;;;;;;;;;;2.49;54.40;97284.44;5008654;28;20352;-76
2023/03/02 06:30:48;;;;;;;;;;;;;;;2.42;54.16;97282.63;5035255;28;20361;-76
2023/03/02 06:33:14;;;;;;;;;;;;;;;2.40;54.97;97286.38;5033647;28;19963;-76
2023/03/02 06:35:40;;;;;;;;;;;;;;;2.43;54.75;97281.66;5059286;28;20426;-75
2023/03/02 06:38:05;;;;;;;;;;;;;;;2.44;54.87;97293.50;5030906;28;19917;-76
2023/03/02 06:40:30;;;;;;;;;;;;;;;2.48;54.30;97291.34;5042591;28;19927;-75
2023/03/02 06:42:55;;;;;;;;;;;;;;;2.60;54.22;97286.47;5037695;28;19923;-76
2023/03/02 06:45:21;;;;;;;;;;;;;;;2.84;53.63;97286.97;5031577;28;19931;-76
2023/03/02 06:47:46;;;;;;;;;;;;;;;2.73;53.93;97291.69;5049687;28;20338;-76
2023/03/02 06:50:11;;;;;;;;;;;;;;;2.68;54.32;97288.88;5025924;28;19913;-77
2023/03/02 06:52:36;;;;;;;;;;;;;;;2.71;53.96;97279.97;5023667;28;20011;-76
2023/03/02 06:55:02;;;;;;;;;;;;;;;2.64;54.25;97277.41;5009703;28;20403;-76
2023/03/02 06:57:32;;;;;;;;;;;;;;;2.87;53.98;97291.75;5046955;28;19950;-76
2023/03/02 06:59:58;;;;;;;;;;;;;;;3.05;53.96;97281.72;5012343;28;19924;-75
2023/03/02 07:02:23;;;;;;;;;;;;;;;3.07;53.55;97289.22;5047570;28;19912;-76
2023/03/02 07:04:48;;;;;;;;;;;;;;;2.86;53.82;97290.16;5048664;28;19917;-77
2023/03/02 07:07:14;;;;;;;;;;;;;;;3.09;53.38;97293.19;5030768;28;19916;-75
2023/03/02 07:09:39;;;;;;;;;;;;;;;3.08;53.84;97294.19;5023960;28;19916;-76
2023/03/02 07:12:04;;;;;;;;;;;;;;;3.10;53.25;97294.81;5045193;28;20368;-76
2023/03/02 07:14:30;;;;;;;;;;;;;;;3.14;54.00;97302.91;5044880;28;19912;-77
2023/03/02 07:16:56;;;;;;;;;;;;;;;3.37;53.48;97297.44;5044483;28;20273;-76
2023/03/02 07:19:21;;;;;;;;;;;;;;;3.24;53.16;97302.53;5010148;28;20351;-76
2023/03/02 07:21:46;;;;;;;;;;;;;;;3.40;52.55;97302.19;5044485;28;19912;-76
2023/03/02 07:24:11;;;;;;;;;;;;;;;3.68;52.52;97293.50;5043367;28;20384;-75
2023/03/02 07:26:37;;;;;;;;;;;;;;;3.64;52.17;97308.56;5048342;28;19913;-75
2023/03/02 07:29:02;;;;;;;;;;;;;;;3.62;52.44;97297.69;5000116;28;19917;-75
2023/03/02 07:31:28;;;;;;;;;;;;;;;3.59;52.82;97303.22;5009525;28;19928;-76
2023/03/02 07:33:53;;;;;;;;;;;;;;;3.64;52.22;97298.25;5035411;28;20372;-76
2023/03/02 07:36:18;;;;;;;;;;;;;;;3.70;52.30;97306.97;5035092;28;19919;-76
2023/03/02 07:38:44;;;;;;;;;;;;;;;4.01;52.08;97303.03;5040139;28;19923;-76
2023/03/02 07:41:09;;;;;;;;;;;;;;;4.08;52.12;97306.41;5036199;28;19927;-76
2023/03/02 07:43:35;;;;;;;;;;;;;;;3.94;52.26;97303.03;5017195;28;20372;-76
2023/03/02 07:46:01;;;;;;;;;;;;;;;4.14;51.69;97308.19;5026749;28;19912;-75
2023/03/02 07:48:26;;;;;;;;;;;;;;;4.32;51.28;97310.16;5039733;28;19916;-76
2023/03/02 07:50:55;;;;;;;;;;;;;;;4.24;51.11;97308.56;5035066;28;20169;-76
2023/03/02 07:53:21;;;;;;;;;;;;;;;4.00;51.57;97311.75;5017509;28;19917;-76
2023/03/02 07:55:46;;;;;;;;;;;;;;;4.33;50.97;97314.31;5029286;28;19951;-75
2023/03/02 07:58:11;;;;;;;;;;;;;;;4.15;51.72;97319.28;5010500;28;19916;-76
2023/03/02 08:00:38;;;;;;;;;;;;;;;4.30;50.88;97320.66;4995857;28;20016;-76
2023/03/02 08:03:03;;;;;;;;;;;;;;;4.58;51.24;97317.03;5037392;28;19920;-75
2023/03/02 08:05:29;;;;;;;;;;;;;;;4.48;51.37;97330.34;5033384;28;20330;-75
2023/03/02 08:07:57;;;;;;;;;;;;;;;4.26;51.56;97329.78;5022987;28;19924;-76
2023/03/02 08:10:22;;;;;;;;;;;;;;;4.62;50.36;97325.94;5036303;28;19912;-77
2023/03/02 08:12:47;;;;;;;;;;;;;;;4.54;51.39;97328.75;5030590;28;19913;-77
2023/03/02 08:15:13;;;;;;;;;;;;;;;4.57;50.83;97324.97;5029507;28;19912;-77
2023/03/02 08:17:38;;;;;;;;;;;;;;;4.75;50.27;97322.56;5011157;28;19943;-76
2023/03/02 08:20:04;;;;;;;;;;;;;;;4.74;50.42;97322.75;5040262;28;20502;-75
2023/03/02 08:22:29;;;;;;;;;;;;;;;4.87;50.61;97317.56;5010170;28;20322;-75
2023/03/02 08:24:54;;;;;;;;;;;;;;;4.93;49.98;97315.94;5042524;28;19923;-75
2023/03/02 08:27:19;;;;;;;;;;;;;;;5.04;49.56;97326.41;5026719;28;19927;-75
2023/03/02 08:29:45;;;;;;;;;;;;;;;5.06;50.52;97321.06;5030445;28;19988;-75
2023/03/02 08:32:10;;;;;;;;;;;;;;;4.95;50.25;97325.09;5012821;28;20427;-76
2023/03/02 08:34:35;;;;;;;;;;;;;;;4.92;49.95;97322.09;5030092;28;19913;-77
2023/03/02 08:37:00;;;;;;;;;;;;;;;5.18;49.65;97326.38;5030555;28;19948;-76
2023/03/02 08:39:29;;;;;;;;;;;;;;;5.07;50.04;97323.44;5011182;28;19931;-77
2023/03/02 08:41:54;;;;;;;;;;;;;;;5.31;50.25;97326.28;5018069;28;20299;-75
2023/03/02 08:44:22;;;;;;;;;;;;;;;5.55;48.63;97329.16;5022546;28;19924;-75
2023/03/02 08:46:48;;;;;;;;;;;;;;;5.63;48.73;97321.94;5011273;28;19963;-75
2023/03/02 08:49:13;;;;;;;;;;;;;;;5.71;49.12;97323.50;5037616;28;19977;-76
2023/03/02 08:51:39;;;;;;;;;;;;;;;5.76;48.84;97318.50;5048051;28;19960;-75
2023/03/02 08:54:04;;;;;;;;;;;;;;;5.81;48.51;97323.81;5045523;28;19970;-75
2023/03/02 08:56:30;;;;;;;;;;;;;;;5.92;48.25;97321.56;5047058;28;19927;-76
2023/03/02 08:59:00;;;;;;;;;;;;;;;5.90;47.84;97319.19;5024362;28;20399;-74
2023/03/02 09:01:27;;;;;;;;;;;;;;;6.05;47.58;97318.09;5021789;28;20416;-75
2023/03/02 09:03:52;;;;;;;;;;;;;;;6.07;47.88;97319.47;5030458;28;19923;-75
2023/03/02 09:06:18;;;;;;;;;;;;;;;5.98;47.77;97321.53;5028233;28;20237;-75
2023/03/02 09:08:43;;;;;;;;;;;;;;;6.06;48.16;97312.72;5031086;28;20376;-74
2023/03/02 09:11:08;;;;;;;;;;;;;;;6.15;48.02;97311.47;5046532;28;19913;-75
2023/03/02 09:13:33;;;;;;;;;;;;;;;6.23;47.98;97314.78;5025840;28;20101;-75
2023/03/02 09:16:00;;;;;;;;;;;;;;;5.94;48.76;97316.97;5030029;28;19916;-75
2023/03/02 09:18:25;;;;;;;;;;;;;;;6.24;47.68;97308.59;5044754;28;19920;-75
2023/03/02 09:20:51;;;;;;;;;;;;;;;6.34;47.65;97316.66;5048151;28;19920;-75
2023/03/02 09:23:16;;;;;;;;;;;;;;;6.54;47.35;97317.25;5030017;28;19923;-75
2023/03/02 09:25:41;;;;;;;;;;;;;;;6.69;47.73;97316.13;5029955;28;19916;-75
2023/03/02 09:28:07;;;;;;;;;;;;;;;6.74;47.29;97311.09;5013718;28;19999;-75
2023/03/02 09:30:32;;;;;;;;;;;;;;;6.99;47.09;97316.19;5030015;28;19917;-76
2023/03/02 09:32:57;;;;;;;;;;;;;;;7.30;46.02;97310.03;5047343;28;19932;-77
2023/03/02 09:35:22;;;;;;;;;;;;;;;7.43;45.61;97316.03;5027576;28;19921;-77
2023/03/02 09:37:48;;;;;;;;;;;;;;;7.59;45.26;97317.19;5026290;28;19924;-76
2023/03/02 09:40:20;;;;;;;;;;;;;;;7.67;45.36;97314.28;5039954;28;19948;-76
2023/03/02 09:42:49;;;;;;;;;;;;;;;7.95;44.88;97316.28;5012537;28;19927;-76
2023/03/02 09:45:18;;;;;;;;;;;;;;;7.98;44.48;97310.63;5043387;28;19924;-76
2023/03/02 09:47:46;;;;;;;;;;;;;;;8.30;44.83;97306.94;5034121;28;19959;-74
2023/03/02 09:50:26;;;;;;;;;;;;;;;8.37;43.48;97308.38;5033845;28;19912;-75
2023/03/02 09:53:10;;;;;;;;;;;;;;;8.62;43.34;97310.00;5030318;28;19913;-75
2023/03/02 09:55:35;;;;;;;;;;;;;;;8.98;42.98;97300.31;5032827;28;19912;-75
2023/03/02 09:58:03;;;;;;;;;;;;;;;8.96;43.00;97310.94;5049780;28;20371;-76
2023/03/02 10:00:34;;;;;;;;;;;;;;;9.25;43.05;97310.16;5013882;28;19917;-77
2023/03/02 10:03:00;;;;;;;;;;;;;;;9.46;42.13;97313.91;5046875;28;20185;-75
2023/03/02 10:05:38;;;;;;;;;;;;;;;9.82;41.69;97307.50;5027927;28;20292;-75
2023/03/02 10:08:04;;;;;;;;;;;;;;;9.81;41.69;97303.31;5032458;28;19913;-76
2023/03/02 10:10:42;;;;;;;;;;;;;;;9.82;41.58;97304.09;5010439;28;19916;-75
2023/03/02 10:13:10;;;;;;;;;;;;;;;10.04;41.67;97298.97;5030525;28;19916;-76
2023/03/02 10:15:51;;;;;;;;;;;;;;;10.14;41.68;97309.53;5050209;28;20113;-77
2023/03/02 10:18:21;;;;;;;;;;;;;;;10.20;41.84;97303.41;5049840;28;19916;-77
2023/03/02 10:20:46;;;;;;;;;;;;;;;10.36;41.18;97295.84;5013484;28;20407;-76
2023/03/02 10:23:32;;;;;;;;;;;;;;;10.65;40.99;97292.03;5047458;28;19951;-78
2023/03/02 10:26:01;;;;;;;;;;;;;;;10.23;41.66;97297.72;5046209;28;19994;-77
2023/03/02 10:28:31;;;;;;;;;;;;;;;10.40;41.46;97299.53;5049331;28;19920;-76
2023/03/02 10:31:06;;;;;;;;;;;;;;;10.80;40.68;97295.88;5013156;28;19917;-77
2023/03/02 10:33:32;;;;;;;;;;;;;;;10.68;41.25;97291.56;4998234;28;19917;-77
2023/03/02 10:35:59;;;;;;;;;;;;;;;11.07;40.60;97290.72;5017116;28;19934;-75
2023/03/02 10:38:27;;;;;;;;;;;;;;;11.52;39.99;97292.19;5032210;28;19912;-76
2023/03/02 10:40:58;;;;;;;;;;;;;;;11.30;40.44;97288.88;5015914;28;20409;-76
2023/03/02 10:43:44;;;;;;;;;;;;;;;11.78;39.39;97285.38;5029255;28;20391;-76
2023/03/02 10:46:10;;;;;;;;;;;;;;;11.70;39.28;97283.22;5048331;28;19917;-76
2023/03/02 10:48:50;;;;;;;;;;;;;;;11.65;38.95;97285.78;5049685;28;19912;-75
2023/03/02 10:51:25;;;;;;;;;;;;;;;11.68;39.26;97281.91;5048716;28;19920;-78
2023/03/02 10:54:01;;;;;;;;;;;;;;;11.22;39.93;97272.63;5047238;28;19917;-75
2023/03/02 10:56:26;;;;;;;;;;;;;;;11.39;40.22;97276.94;5041223;28;19936;-76
2023/03/02 10:58:51;;;;;;;;;;;;;;;11.77;39.46;97272.56;5031890;28;20376;-75
2023/03/02 11:01:17;;;;;;;;;;;;;;;12.08;40.07;97271.03;5015312;28;19923;-75
2023/03/02 11:03:53;;;;;;;;;;;;;;;12.17;39.18;97266.88;5023763;28;19968;-76
2023/03/02 11:06:19;;;;;;;;;;;;;;;12.42;38.92;97275.91;5031595;28;19917;-77
2023/03/02 11:08:44;;;;;;;;;;;;;;;12.65;38.78;97271.31;5050591;28;19916;-76
2023/03/02 11:11:17;;;;;;;;;;;;;;;13.01;38.17;97264.38;5048289;28;20299;-76
2023/03/02 11:13:42;;;;;;;;;;;;;;;12.41;37.95;97261.28;5032382;28;19943;-76
2023/03/02 11:16:16;;;;;;;;;;;;;;;12.66;38.45;97270.25;5031804;28;19913;-77
2023/03/02 11:18:48;;;;;;;;;;;;;;;12.97;38.15;97268.56;5032058;28;19916;-77
2023/03/02 11:21:19;;;;;;;;;;;;;;;12.87;37.54;97261.47;5018093;28;19913;-76
2023/03/02 11:24:03;;;;;;;;;;;;;;;13.56;36.69;97254.31;5031815;28;19920;-76
2023/03/02 11:26:44;;;;;;;;;;;;;;;13.56;36.61;97261.38;5027395;28;20336;-76
2023/03/02 11:29:17;;;;;;;;;;;;;;;13.13;36.99;97261.53;5031856;28;20380;-76
2023/03/02 11:31:44;;;;;;;;;;;;;;;12.99;37.29;97253.41;5047916;28;20291;-76
2023/03/02 11:34:10;;;;;;;;;;;;;;;13.75;36.78;97257.19;5029615;28;19923;-76
2023/03/02 11:36:42;;;;;;;;;;;;;;;13.42;36.79;97263.72;5032138;28;19912;-77
2023/03/02 11:39:09;;;;;;;;;;;;;;;13.56;37.17;97259.53;5048597;28;20319;-77
2023/03/02 11:41:35;;;;;;;;;;;;;;;13.20;37.23;97256.84;5010091;28;19912;-78
2023/03/02 11:44:11;;;;;;;;;;;;;;;13.58;37.73;97257.44;5014993;28;19917;-76
2023/03/02 11:46:36;;;;;;;;;;;;;;;14.16;35.75;97253.72;5011943;28;19913;-75
2023/03/02 11:49:06;;;;;;;;;;;;;;;14.62;35.18;97256.25;5040840;28;19918;-77
2023/03/02 11:51:35;;;;;;;;;;;;;;;14.93;34.67;97259.50;5047231;28;19954;-77
2023/03/02 11:54:03;;;;;;;;;;;;;;;15.27;34.31;97256.19;5029323;28;20066;-76
2023/03/02 11:56:30;;;;;;;;;;;;;;;15.13;34.37;97248.13;5011863;28;19935;-76
2023/03/02 11:58:57;;;;;;;;;;;;;;;15.40;34.23;97256.63;5025779;28;19948;-76
2023/03/02 12:01:23;;;;;;;;;;;;;;;15.93;33.23;97243.63;5047193;28;20107;-76
2023/03/02 12:03:48;;;;;;;;;;;;;;;15.81;33.31;97251.09;5046693;28;19995;-77
2023/03/02 12:06:13;;;;;;;;;;;;;;;15.74;33.80;97243.50;5013380;28;20316;-77
2023/03/02 12:08:43;;;;;;;;;;;;;;;15.84;33.15;97240.81;5026232;28;19920;-77
2023/03/02 12:11:17;;;;;;;;;;;;;;;15.79;32.87;97243.47;5030944;28;19913;-77
2023/03/02 12:13:43;;;;;;;;;;;;;;;16.38;32.67;97235.53;5048529;28;19913;-76
2023/03/02 12:16:27;;;;;;;;;;;;;;;17.16;31.82;97229.06;5027485;28;20281;-76
2023/03/02 12:18:52;;;;;;;;;;;;;;;16.89;31.13;97228.91;5047692;28;19913;-77
2023/03/02 12:21:18;;;;;;;;;;;;;;;16.59;31.86;97236.09;5046673;28;19934;-77
2023/03/02 12:23:49;;;;;;;;;;;;;;;16.74;31.55;97225.41;5045377;28;19912;-76
2023/03/02 12:26:18;;;;;;;;;;;;;;;16.48;31.58;97230.16;5029673;28;19916;-77
2023/03/02 12:28:54;;;;;;;;;;;;;;;16.92;31.12;97221.25;5048575;28;19919;-76
2023/03/02 12:31:19;;;;;;;;;;;;;;;17.53;30.15;97216.94;5047006;28;19928;-76
2023/03/02 12:33:46;;;;;;;;;;;;;;;16.31;31.62;97216.72;5045962;28;19913;-77
2023/03/02 12:36:19;;;;;;;;;;;;;;;16.44;31.36;97208.94;5012376;28;19952;-77
2023/03/02 12:38:48;;;;;;;;;;;;;;;15.84;32.25;97214.56;5047555;28;19920;-77
2023/03/02 12:41:16;;;;;;;;;;;;;;;14.88;34.46;97211.56;5045799;28;20423;-77
2023/03/02 12:44:00;;;;;;;;;;;;;;;14.29;35.37;97213.91;5047023;28;19912;-78
2023/03/02 12:46:25;;;;;;;;;;;;;;;14.23;34.97;97212.34;5047379;28;19951;-77
2023/03/02 12:48:58;;;;;;;;;;;;;;;13.78;35.78;97208.78;5049130;28;20301;-77
2023/03/02 12:51:24;;;;;;;;;;;;;;;13.52;36.63;97214.03;5046635;28;19917;-78
2023/03/02 12:54:00;;;;;;;;;;;;;;;13.10;37.20;97212.38;5043176;28;19969;-77